Time;durP1;ratioP1;P1;durP2;ratioP2;P2;SDS_P1;SDS_P2;PMS_P1;PMS_P2;Temp;Humidity;BMP_temperature;BMP_pressure;BME280_temperature;BME280_humidity;BME280_pressure;Samples;Min_cycle;Max_cycle;Signal;HPM_P1;HPM_P2
2021/09/09 00:00:31;;;;;;;10.27;2.83;;;15.50;81.40;;;;;;5031717;28;20082;-65
2021/09/09 00:02:57;;;;;;;8.65;2.33;;;15.50;81.30;;;;;;5031619;28;20037;-67
2021/09/09 00:05:24;;;;;;;12.68;2.38;;;15.50;81.30;;;;;;5029820;28;20022;-66
2021/09/09 00:07:50;;;;;;;9.48;2.40;;;15.50;81.20;;;;;;5032261;28;20033;-66
2021/09/09 00:10:56;;;;;;;11.85;4.45;;;15.50;81.30;;;;;;5024007;28;20013;-67
2021/09/09 00:14:02;;;;;;;14.52;2.35;;;15.50;81.00;;;;;;5032354;28;20090;-65
2021/09/09 00:16:29;;;;;;;8.10;1.80;;;15.50;80.80;;;;;;5031640;28;20466;-66
2021/09/09 00:18:55;;;;;;;4.38;1.77;;;15.50;80.80;;;;;;5030913;28;20037;-66
2021/09/09 00:21:22;;;;;;;6.63;4.25;;;15.50;80.70;;;;;;5031571;28;20393;-67
2021/09/09 00:23:48;;;;;;;7.97;2.33;;;15.40;80.40;;;;;;5028444;28;20029;-69
2021/09/09 00:26:15;;;;;;;9.20;2.22;;;15.40;81.00;;;;;;5029079;28;20050;-67
2021/09/09 00:28:41;;;;;;;5.55;1.95;;;15.40;80.20;;;;;;5029224;28;20048;-67
2021/09/09 00:31:08;;;;;;;6.82;2.25;;;15.30;80.00;;;;;;5029764;28;20032;-66
2021/09/09 00:33:34;;;;;;;8.82;3.50;;;15.30;80.60;;;;;;5028609;28;20144;-66
2021/09/09 00:36:02;;;;;;;9.55;4.00;;;15.30;79.80;;;;;;5027614;28;20020;-66
2021/09/09 00:38:29;;;;;;;7.35;3.50;;;15.30;79.60;;;;;;5029264;28;20124;-65
2021/09/09 00:40:56;;;;;;;5.00;2.53;;;15.30;79.40;;;;;;5030979;28;20033;-65
2021/09/09 00:43:23;;;;;;;8.45;2.78;;;15.20;79.30;;;;;;5031896;28;20021;-67
2021/09/09 00:45:54;;;;;;;11.20;4.15;;;15.20;79.10;;;;;;5030691;28;20033;-76
2021/09/09 00:48:21;;;;;;;5.88;3.00;;;15.20;78.90;;;;;;5031073;28;20037;-66
2021/09/09 00:50:48;;;;;;;7.50;2.30;;;15.20;78.70;;;;;;5027096;28;20473;-66
2021/09/09 00:53:15;;;;;;;8.45;2.13;;;15.20;78.60;;;;;;5029050;28;20033;-66
2021/09/09 00:55:42;;;;;;;6.88;2.40;;;15.20;78.60;;;;;;5031946;28;20096;-67
2021/09/09 00:58:09;;;;;;;6.90;2.40;;;15.20;78.70;;;;;;5030707;28;20013;-68
2021/09/09 01:00:39;;;;;;;6.53;1.90;;;15.20;78.90;;;;;;5030073;28;20097;-66
2021/09/09 01:03:07;;;;;;;3.35;2.13;;;15.20;79.10;;;;;;5026260;28;20045;-66
2021/09/09 01:05:37;;;;;;;9.10;3.00;;;15.20;79.30;;;;;;5029767;28;20025;-67
2021/09/09 01:08:05;;;;;;;9.25;2.33;;;15.20;79.50;;;;;;5028436;28;20469;-65
2021/09/09 01:10:33;;;;;;;10.13;4.07;;;15.20;79.90;;;;;;5032237;28;20018;-68
2021/09/09 01:13:00;;;;;;;9.10;2.10;;;15.20;80.10;;;;;;5028073;28;20017;-74
2021/09/09 01:15:26;;;;;;;5.15;1.63;;;15.20;80.20;;;;;;5029418;28;20028;-66
2021/09/09 01:17:53;;;;;;;5.25;2.17;;;15.20;80.30;;;;;;5031944;28;20021;-68
2021/09/09 01:20:19;;;;;;;9.60;3.33;;;15.20;80.40;;;;;;5029074;28;20044;-69
2021/09/09 01:22:46;;;;;;;7.28;2.33;;;15.10;80.40;;;;;;5032394;28;20041;-65
2021/09/09 01:25:13;;;;;;;9.48;2.53;;;15.10;80.50;;;;;;5028444;28;20053;-69
2021/09/09 01:27:39;;;;;;;12.48;3.22;;;15.10;80.40;;;;;;5030653;28;20026;-67
2021/09/09 01:30:06;;;;;;;7.15;2.38;;;15.10;80.40;;;;;;5024330;28;20025;-68
2021/09/09 01:32:33;;;;;;;8.35;2.28;;;15.10;80.40;;;;;;5029787;28;20460;-68
2021/09/09 01:34:59;;;;;;;5.97;1.70;;;15.10;80.40;;;;;;5031539;28;20025;-70
2021/09/09 01:37:26;;;;;;;3.00;1.70;;;15.10;80.30;;;;;;5029387;28;20017;-68
2021/09/09 01:39:55;;;;;;;7.80;2.00;;;15.10;80.10;;;;;;5030134;28;20465;-67
2021/09/09 01:42:21;;;;;;;4.88;1.98;;;15.10;80.10;;;;;;5029418;28;20032;-70
2021/09/09 01:44:48;;;;;;;6.25;2.28;;;15.10;80.00;;;;;;5028392;28;20045;-67
2021/09/09 01:47:14;;;;;;;6.80;1.60;;;15.10;80.00;;;;;;5032312;28;20484;-66
2021/09/09 01:49:41;;;;;;;9.23;1.95;;;15.10;79.90;;;;;;5025342;28;20069;-71
2021/09/09 01:52:08;;;;;;;6.57;1.80;;;15.10;79.70;;;;;;5030719;28;20017;-68
2021/09/09 01:54:34;;;;;;;5.43;2.17;;;15.10;79.60;;;;;;5029120;28;20179;-65
2021/09/09 01:57:01;;;;;;;9.73;3.47;;;15.10;79.40;;;;;;5031770;28;20074;-69
2021/09/09 01:59:27;;;;;;;7.47;2.28;;;15.10;79.40;;;;;;5029622;28;20014;-65
2021/09/09 02:01:54;;;;;;;7.82;2.20;;;15.10;79.30;;;;;;5031978;28;20082;-65
2021/09/09 02:04:20;;;;;;;8.30;2.78;;;15.10;79.30;;;;;;5028390;28;20796;-66
2021/09/09 02:06:47;;;;;;;5.07;1.88;;;15.10;79.20;;;;;;5022987;28;20027;-65
2021/09/09 02:09:13;;;;;;;6.85;1.88;;;15.10;79.30;;;;;;5029231;28;20029;-73
2021/09/09 02:11:39;;;;;;;8.18;2.28;;;15.10;79.10;;;;;;5023563;28;20480;-65
2021/09/09 02:14:06;;;;;;;8.15;3.45;;;15.00;79.10;;;;;;5022514;28;20017;-66
2021/09/09 02:16:32;;;;;;;6.18;2.80;;;15.00;79.10;;;;;;5028189;28;20037;-67
2021/09/09 02:18:59;;;;;;;9.20;4.40;;;15.00;79.10;;;;;;5026333;28;20020;-65
2021/09/09 02:21:25;;;;;;;5.60;2.65;;;15.00;79.10;;;;;;5029764;28;20513;-65
2021/09/09 02:23:52;;;;;;;8.85;3.33;;;14.90;79.20;;;;;;5030657;28;20022;-66
2021/09/09 02:26:19;;;;;;;11.82;3.28;;;14.90;79.20;;;;;;5031819;28;20472;-68
2021/09/09 02:28:45;;;;;;;9.05;3.10;;;14.90;79.30;;;;;;5028904;28;20104;-65
2021/09/09 02:31:12;;;;;;;14.60;5.25;;;14.90;79.20;;;;;;5030216;28;20025;-74
2021/09/09 02:33:39;;;;;;;11.60;4.28;;;14.90;79.10;;;;;;5029861;28;20478;-68
2021/09/09 02:36:06;;;;;;;10.43;5.00;;;14.80;79.10;;;;;;5027831;28;20025;-65
2021/09/09 02:38:32;;;;;;;12.20;4.28;;;14.80;79.30;;;;;;5029252;28;20222;-75
2021/09/09 02:40:59;;;;;;;5.97;3.90;;;14.70;79.20;;;;;;5029985;28;20025;-64
2021/09/09 02:43:25;;;;;;;8.90;3.22;;;14.80;79.30;;;;;;5029817;28;20025;-66
2021/09/09 02:45:52;;;;;;;7.65;3.55;;;14.80;79.30;;;;;;5020721;28;20013;-66
2021/09/09 02:48:18;;;;;;;6.97;2.75;;;14.70;79.30;;;;;;5030760;28;20574;-66
2021/09/09 02:50:45;;;;;;;9.32;3.50;;;14.70;79.20;;;;;;5029424;28;20104;-65
2021/09/09 02:53:11;;;;;;;5.70;3.63;;;14.70;79.10;;;;;;5030656;28;20018;-67
2021/09/09 02:55:37;;;;;;;9.25;2.88;;;14.70;78.90;;;;;;5027337;28;20901;-66
2021/09/09 02:58:04;;;;;;;4.63;1.98;;;14.70;78.90;;;;;;5029130;28;20132;-67
2021/09/09 03:00:31;;;;;;;10.43;2.65;;;14.70;78.90;;;;;;5029126;28;20108;-67
2021/09/09 03:02:57;;;;;;;5.85;2.35;;;14.70;78.80;;;;;;5024334;28;20037;-66
2021/09/09 03:05:24;;;;;;;8.73;2.83;;;14.70;78.80;;;;;;5028027;28;20032;-67
2021/09/09 03:07:50;;;;;;;7.80;2.22;;;14.80;78.80;;;;;;5026390;28;20044;-66
2021/09/09 03:10:17;;;;;;;5.75;2.42;;;14.80;78.60;;;;;;5033047;28;20385;-65
2021/09/09 03:12:43;;;;;;;7.30;2.00;;;14.80;78.50;;;;;;5032714;28;20021;-65
2021/09/09 03:15:10;;;;;;;9.23;3.30;;;14.90;78.60;;;;;;5033644;28;20045;-66
2021/09/09 03:17:37;;;;;;;6.90;2.22;;;14.90;78.40;;;;;;5033394;28;20029;-70
2021/09/09 03:20:05;;;;;;;12.27;2.40;;;14.90;78.20;;;;;;5030321;28;20018;-66
2021/09/09 03:22:31;;;;;;;7.15;3.40;;;14.90;78.00;;;;;;5033527;28;20029;-74
2021/09/09 03:24:58;;;;;;;11.75;3.10;;;14.90;77.90;;;;;;5033224;28;20456;-72
2021/09/09 03:27:24;;;;;;;3.83;2.08;;;14.90;77.80;;;;;;5030027;28;20021;-66
2021/09/09 03:29:51;;;;;;;6.07;2.78;;;14.90;77.80;;;;;;5031165;28;20022;-76
2021/09/09 03:32:17;;;;;;;6.63;3.22;;;14.90;77.90;;;;;;5034902;28;20020;-65
2021/09/09 03:34:44;;;;;;;7.68;3.05;;;14.90;77.90;;;;;;5033649;28;20021;-66
2021/09/09 03:37:10;;;;;;;12.27;3.47;;;14.90;78.00;;;;;;5033360;28;20013;-67
2021/09/09 03:39:36;;;;;;;10.20;2.55;;;14.90;77.90;;;;;;5029679;28;20021;-77
2021/09/09 03:42:03;;;;;;;11.15;4.35;;;14.90;77.90;;;;;;5029862;28;20387;-66
2021/09/09 03:44:30;;;;;;;10.40;2.78;;;14.90;78.20;;;;;;5027548;28;20052;-66
2021/09/09 03:46:56;;;;;;;8.05;3.45;;;14.90;78.30;;;;;;5034853;28;20055;-69
2021/09/09 03:49:23;;;;;;;7.90;2.85;;;14.90;78.20;;;;;;5022994;28;20050;-68
2021/09/09 03:51:49;;;;;;;7.63;2.95;;;15.00;78.10;;;;;;5031471;28;20101;-65
2021/09/09 03:54:16;;;;;;;8.38;3.70;;;15.00;78.00;;;;;;5032764;28;20025;-68
2021/09/09 03:56:42;;;;;;;10.80;4.25;;;14.90;78.00;;;;;;5033626;28;20548;-64
2021/09/09 03:59:49;;;;;;;9.20;3.40;;;14.90;78.10;;;;;;5029140;28;20075;-75
2021/09/09 04:02:17;;;;;;;22.27;13.18;;;14.90;78.20;;;;;;5031450;28;20036;-67
2021/09/09 04:05:23;;;;;;;43.15;25.35;;;14.90;78.20;;;;;;5027131;28;20066;-65
2021/09/09 04:08:29;;;;;;;41.10;17.35;;;14.80;78.30;;;;;;5027873;28;20047;-66
2021/09/09 04:11:36;;;;;;;66.55;23.58;;;14.80;78.10;;;;;;5033843;28;20448;-70
2021/09/09 04:14:22;;;;;;;;;;;14.80;78.10;;;;;;5030114;28;20022;-68
2021/09/09 04:17:28;;;;;;;21.13;9.43;;;14.80;77.90;;;;;;5028893;28;20422;-72
2021/09/09 04:20:34;;;;;;;17.95;6.15;;;14.70;77.70;;;;;;5030304;28;20025;-68
2021/09/09 04:23:40;;;;;;;12.05;4.28;;;14.70;77.80;;;;;;5029596;28;20038;-63
2021/09/09 04:26:46;;;;;;;13.68;6.22;;;14.70;78.50;;;;;;5025880;28;20079;-72
2021/09/09 04:29:52;;;;;;;13.13;4.72;;;14.70;77.70;;;;;;5028390;28;20476;-65
2021/09/09 04:32:58;;;;;;;28.88;17.42;;;14.60;77.60;;;;;;5030391;28;20049;-66
2021/09/09 04:36:04;;;;;;;9.85;5.40;;;14.60;77.40;;;;;;5026368;28;20025;-72
2021/09/09 04:39:10;;;;;;;11.48;6.78;;;14.60;77.20;;;;;;5026901;28;20034;-75
2021/09/09 04:42:10;;;;;;;16.55;6.47;;;14.60;77.10;;;;;;5031170;28;21919;-68
2021/09/09 04:44:48;;;;;;;20.13;8.18;;;14.60;77.10;;;;;;5012116;28;20191;-69
2021/09/09 04:47:23;;;;;;;17.48;7.57;;;14.50;77.00;;;;;;5027535;28;20088;-77
2021/09/09 04:49:50;;;;;;;;;;;14.50;77.10;;;;;;5030102;28;20053;-69
2021/09/09 04:52:16;;;;;;;;;;;14.50;77.10;;;;;;5024084;28;19904;-68
2021/09/09 04:55:25;;;;;;;16.88;8.93;;;14.50;77.10;;;;;;5027318;28;20345;-68
2021/09/09 04:58:32;;;;;;;16.65;9.18;;;14.50;77.10;;;;;;5026827;28;20400;-69
2021/09/09 05:01:38;;;;;;;21.48;10.90;;;14.50;77.20;;;;;;5022385;28;20522;-70
2021/09/09 05:04:05;;;;;;;23.48;10.77;;;14.50;77.30;;;;;;5028319;28;20020;-74
2021/09/09 05:06:35;;;;;;;14.30;9.50;;;14.50;77.80;;;;;;5028168;28;20030;-76
2021/09/09 05:09:01;;;;;;;13.57;8.57;;;14.50;78.20;;;;;;5028329;28;20432;-72
2021/09/09 05:11:28;;;;;;;15.88;9.20;;;14.50;78.60;;;;;;5029136;28;20049;-74
2021/09/09 05:13:54;;;;;;;16.13;8.25;;;14.40;78.80;;;;;;5025709;28;20045;-68
2021/09/09 05:16:46;;;;;;;13.38;8.65;;;14.40;78.90;;;;;;5028365;28;20087;-75
2021/09/09 05:19:14;;;;;;;14.95;9.02;;;14.40;79.10;;;;;;5025681;28;20052;-66
2021/09/09 05:21:40;;;;;;;22.27;11.27;;;14.40;79.30;;;;;;5027799;28;20456;-66
2021/09/09 05:24:07;;;;;;;19.15;10.02;;;14.40;79.40;;;;;;5029798;28;20083;-67
2021/09/09 05:26:33;;;;;;;21.15;9.68;;;14.40;79.50;;;;;;5027631;28;20420;-69
2021/09/09 05:29:00;;;;;;;13.27;7.15;;;14.40;79.50;;;;;;5028371;28;20074;-76
2021/09/09 05:31:26;;;;;;;16.80;5.80;;;14.40;79.40;;;;;;5025925;28;20025;-67
2021/09/09 05:33:53;;;;;;;14.18;5.32;;;14.40;79.30;;;;;;5029986;28;20051;-66
2021/09/09 05:36:22;;;;;;;12.55;5.97;;;14.40;79.30;;;;;;5028463;28;20017;-65
2021/09/09 05:38:48;;;;;;;12.77;5.00;;;14.40;79.30;;;;;;5028458;28;20053;-68
2021/09/09 05:41:15;;;;;;;8.90;4.15;;;14.40;79.40;;;;;;5030464;28;20056;-66
2021/09/09 05:43:41;;;;;;;7.70;4.22;;;14.40;79.50;;;;;;5027364;28;20490;-68
2021/09/09 05:46:08;;;;;;;11.98;4.40;;;14.40;79.30;;;;;;5029649;28;20082;-65
2021/09/09 05:48:34;;;;;;;8.02;3.45;;;14.50;79.20;;;;;;5030212;28;20037;-66
2021/09/09 05:51:01;;;;;;;11.80;3.58;;;14.50;78.90;;;;;;5028242;28;20469;-65
2021/09/09 05:53:27;;;;;;;11.88;4.13;;;14.50;78.60;;;;;;5028823;28;20026;-65
2021/09/09 05:55:54;;;;;;;11.43;3.10;;;14.60;78.70;;;;;;5031682;28;20033;-66
2021/09/09 05:58:20;;;;;;;8.05;3.85;;;14.70;78.90;;;;;;5019257;28;20018;-76
2021/09/09 06:00:47;;;;;;;9.18;3.10;;;14.70;79.00;;;;;;5029554;28;20013;-69
2021/09/09 06:03:14;;;;;;;4.55;2.38;;;14.70;79.20;;;;;;5027027;28;20451;-74
2021/09/09 06:05:41;;;;;;;5.47;3.00;;;14.80;79.30;;;;;;5031592;28;20029;-69
2021/09/09 06:08:07;;;;;;;3.58;2.47;;;14.80;79.20;;;;;;5025148;28;20026;-76
2021/09/09 06:10:34;;;;;;;4.50;2.75;;;14.80;79.00;;;;;;5028921;28;20017;-65
2021/09/09 06:13:01;;;;;;;6.80;2.88;;;14.90;78.90;;;;;;5029413;28;20377;-66
2021/09/09 06:15:27;;;;;;;4.53;2.17;;;14.90;78.80;;;;;;5021488;28;20022;-66
2021/09/09 06:17:53;;;;;;;6.35;3.00;;;15.00;78.70;;;;;;5043531;28;20139;-76
2021/09/09 06:20:20;;;;;;;7.65;2.30;;;15.00;78.60;;;;;;5029349;28;20026;-76
2021/09/09 06:22:46;;;;;;;3.92;2.10;;;15.10;78.20;;;;;;5028463;28;20040;-76
2021/09/09 06:25:13;;;;;;;5.35;1.27;;;15.10;77.20;;;;;;5025861;28;20021;-65
2021/09/09 06:27:40;;;;;;;6.55;1.95;;;15.20;74.20;;;;;;5028058;28;20041;-66
2021/09/09 06:30:07;;;;;;;3.53;1.40;;;15.20;72.60;;;;;;5027357;28;20025;-75
2021/09/09 06:32:33;;;;;;;2.85;1.05;;;15.30;71.10;;;;;;5029577;28;20061;-75
2021/09/09 06:35:00;;;;;;;2.55;1.77;;;15.40;70.00;;;;;;5030315;28;20013;-66
2021/09/09 06:37:26;;;;;;;2.50;1.50;;;15.50;69.80;;;;;;5030667;28;20037;-76
2021/09/09 06:39:53;;;;;;;6.07;2.10;;;15.60;69.00;;;;;;5028401;28;20132;-66
2021/09/09 06:42:19;;;;;;;5.35;1.33;;;15.70;68.70;;;;;;5028637;28;20033;-65
2021/09/09 06:44:46;;;;;;;4.13;1.38;;;15.70;68.60;;;;;;5028416;28;20031;-72
2021/09/09 06:47:12;;;;;;;1.90;1.17;;;15.90;68.60;;;;;;5029722;28;20443;-65
2021/09/09 06:49:39;;;;;;;5.53;1.35;;;15.90;68.50;;;;;;5021890;28;20018;-76
2021/09/09 06:52:06;;;;;;;6.85;1.30;;;16.00;67.50;;;;;;5024388;28;20029;-74
2021/09/09 06:54:32;;;;;;;3.55;1.27;;;16.10;67.20;;;;;;5029570;28;20025;-76
2021/09/09 06:56:59;;;;;;;3.88;1.17;;;16.10;66.60;;;;;;5023279;28;20081;-75
2021/09/09 06:59:25;;;;;;;3.38;2.00;;;16.20;66.40;;;;;;5025124;28;20010;-75
2021/09/09 07:01:52;;;;;;;4.43;1.90;;;16.20;66.20;;;;;;5029011;28;20033;-76
2021/09/09 07:04:18;;;;;;;2.25;1.70;;;16.30;66.50;;;;;;5027901;28;20049;-76
2021/09/09 07:06:45;;;;;;;2.95;1.80;;;16.40;66.00;;;;;;5027382;28;20013;-71
2021/09/09 07:09:11;;;;;;;9.93;1.85;;;16.40;65.60;;;;;;5029529;28;20060;-76
2021/09/09 07:11:37;;;;;;;10.07;1.88;;;16.50;66.00;;;;;;5023481;28;20033;-73
2021/09/09 07:14:06;;;;;;;7.43;2.53;;;16.50;66.20;;;;;;5026975;28;20010;-76
2021/09/09 07:16:33;;;;;;;6.43;2.67;;;16.60;66.10;;;;;;5028246;28;20037;-69
2021/09/09 07:18:59;;;;;;;4.30;1.98;;;16.60;65.60;;;;;;5027761;28;20017;-68
2021/09/09 07:21:26;;;;;;;5.82;2.50;;;16.60;65.70;;;;;;5029016;28;20034;-67
2021/09/09 07:23:52;;;;;;;12.23;2.78;;;16.70;65.50;;;;;;5026607;28;20017;-75
2021/09/09 07:26:19;;;;;;;4.50;2.35;;;16.80;65.80;;;;;;5027045;28;20025;-73
2021/09/09 07:28:45;;;;;;;8.73;3.53;;;16.80;65.90;;;;;;5027811;28;20022;-69
2021/09/09 07:31:12;;;;;;;10.45;4.13;;;16.90;66.20;;;;;;5027022;28;20013;-66
2021/09/09 07:33:38;;;;;;;6.35;4.28;;;17.00;66.30;;;;;;5026219;28;20022;-67
2021/09/09 07:36:08;;;;;;;10.20;3.97;;;17.00;66.20;;;;;;5027478;28;20014;-66
2021/09/09 07:38:35;;;;;;;9.70;5.47;;;17.10;66.50;;;;;;5030702;28;20022;-72
2021/09/09 07:41:03;;;;;;;8.52;4.78;;;17.20;66.60;;;;;;5026895;28;20022;-72
2021/09/09 07:43:29;;;;;;;11.70;4.35;;;17.20;66.50;;;;;;5027354;28;20025;-66
2021/09/09 07:45:56;;;;;;;9.95;5.15;;;17.30;66.40;;;;;;5025971;28;20100;-68
2021/09/09 07:48:23;;;;;;;13.27;4.47;;;17.30;66.30;;;;;;5030224;28;20075;-69
2021/09/09 07:50:49;;;;;;;9.90;4.47;;;17.40;66.30;;;;;;5026658;28;20018;-73
2021/09/09 07:53:16;;;;;;;15.60;7.72;;;17.50;66.40;;;;;;5028230;28;20017;-72
2021/09/09 07:55:42;;;;;;;14.63;5.63;;;17.50;66.40;;;;;;5027227;28;20060;-75
2021/09/09 07:58:09;;;;;;;13.70;7.10;;;17.60;66.80;;;;;;5031418;28;20079;-66
2021/09/09 08:00:36;;;;;;;15.73;7.32;;;17.70;66.80;;;;;;5029221;28;20100;-66
2021/09/09 08:03:03;;;;;;;12.95;7.38;;;17.80;66.70;;;;;;5029202;28;20436;-69
2021/09/09 08:05:29;;;;;;;15.68;7.97;;;17.90;66.60;;;;;;5047623;28;20022;-68
2021/09/09 08:07:55;;;;;;;20.25;10.23;;;18.00;66.30;;;;;;5028425;28;20468;-66
2021/09/09 08:10:22;;;;;;;11.15;6.65;;;18.10;66.10;;;;;;5029128;28;20506;-71
2021/09/09 08:12:48;;;;;;;15.30;6.53;;;18.20;65.60;;;;;;5025373;28;20029;-66
2021/09/09 08:15:16;;;;;;;13.60;7.38;;;18.40;65.00;;;;;;5028374;28;20084;-72
2021/09/09 08:17:44;;;;;;;15.55;6.43;;;18.40;64.50;;;;;;5025901;28;20026;-67
2021/09/09 08:20:12;;;;;;;14.25;5.88;;;18.60;64.30;;;;;;5024931;28;20033;-73
2021/09/09 08:22:40;;;;;;;15.73;7.80;;;18.70;63.60;;;;;;5025288;28;20516;-70
2021/09/09 08:25:07;;;;;;;11.73;5.90;;;18.90;63.70;;;;;;5024360;28;20025;-72
2021/09/09 08:27:33;;;;;;;13.85;6.35;;;19.00;63.80;;;;;;5030964;28;20021;-66
2021/09/09 08:30:00;;;;;;;15.05;5.72;;;19.20;61.90;;;;;;5034733;28;20454;-69
2021/09/09 08:32:27;;;;;;;13.07;5.55;;;19.30;62.20;;;;;;5026974;28;20075;-68
2021/09/09 08:34:57;;;;;;;15.65;5.80;;;19.40;61.90;;;;;;5031890;28;20032;-67
2021/09/09 08:37:25;;;;;;;9.75;5.22;;;19.60;60.90;;;;;;5028374;28;20022;-70
2021/09/09 08:39:52;;;;;;;10.35;4.05;;;19.80;60.30;;;;;;5032512;28;20033;-72
2021/09/09 08:42:19;;;;;;;10.20;3.85;;;19.90;58.70;;;;;;5032447;28;20033;-72
2021/09/09 08:44:48;;;;;;;13.13;4.78;;;20.10;56.20;;;;;;5029444;28;20041;-68
2021/09/09 08:47:16;;;;;;;9.80;3.30;;;20.20;56.50;;;;;;5029890;28;20013;-72
2021/09/09 08:49:44;;;;;;;10.60;3.15;;;20.40;56.50;;;;;;5028973;28;20096;-73
2021/09/09 08:52:11;;;;;;;3.97;3.08;;;20.60;54.60;;;;;;5029759;28;20022;-75
2021/09/09 08:54:38;;;;;;;6.15;1.90;;;20.70;53.50;;;;;;5030801;28;20078;-68
2021/09/09 08:57:05;;;;;;;5.07;2.08;;;20.90;49.00;;;;;;5033026;28;20029;-72
2021/09/09 08:59:31;;;;;;;8.55;2.00;;;21.10;49.30;;;;;;5030481;28;20428;-68
2021/09/09 09:02:08;;;;;;;4.95;1.90;;;21.30;48.10;;;;;;5030461;28;20400;-67
2021/09/09 09:04:37;;;;;;;9.45;2.67;;;21.50;48.80;;;;;;5031345;28;20035;-76
2021/09/09 09:07:05;;;;;;;6.50;3.10;;;21.70;48.80;;;;;;5026155;28;20048;-73
2021/09/09 09:09:39;;;;;;;12.55;3.70;;;21.90;49.00;;;;;;5032238;28;20024;-72
2021/09/09 09:12:10;;;;;;;4.55;1.70;;;22.00;49.40;;;;;;5028389;28;20026;-73
2021/09/09 09:14:37;;;;;;;3.83;1.50;;;22.20;44.80;;;;;;5025333;28;20024;-67
2021/09/09 09:17:06;;;;;;;6.60;1.75;;;22.40;45.30;;;;;;5029786;28;20067;-75
2021/09/09 09:19:40;;;;;;;4.28;1.50;;;22.60;43.90;;;;;;5024637;28;20036;-75
2021/09/09 09:22:14;;;;;;;5.18;1.58;;;22.70;43.90;;;;;;5027298;28;20641;-74
2021/09/09 09:24:46;;;;;;;2.63;1.23;;;22.90;42.70;;;;;;5029306;28;20432;-76
2021/09/09 09:27:19;;;;;;;5.18;1.52;;;23.10;43.20;;;;;;5029996;28;20022;-72
2021/09/09 09:30:07;;;;;;;7.28;1.67;;;23.20;42.30;;;;;;5027208;28;20061;-71
2021/09/09 09:32:34;;;;;;;7.28;1.77;;;23.40;42.20;;;;;;5028892;28;20028;-73
2021/09/09 09:35:13;;;;;;;2.22;1.55;;;23.60;40.90;;;;;;5032044;28;20079;-75
2021/09/09 09:38:05;;;;;;;6.53;1.83;;;23.70;41.00;;;;;;5029923;28;20469;-75
2021/09/09 09:40:36;;;;;;;5.03;1.20;;;23.90;41.00;;;;;;5031271;28;20029;-72
2021/09/09 09:43:10;;;;;;;2.42;1.42;;;24.10;39.50;;;;;;5030891;28;20480;-72
2021/09/09 09:45:48;;;;;;;3.35;1.83;;;24.30;39.70;;;;;;5028640;28;20017;-76
2021/09/09 09:48:28;;;;;;;6.00;1.52;;;24.40;38.90;;;;;;5029284;28;20484;-70
2021/09/09 09:50:55;;;;;;;2.03;1.42;;;24.40;39.70;;;;;;5026821;28;20033;-67
2021/09/09 09:53:22;;;;;;;3.42;1.13;;;24.60;38.60;;;;;;5030058;28;20029;-67
2021/09/09 09:55:50;;;;;;;4.78;1.88;;;24.60;38.20;;;;;;5028676;28;20056;-66
2021/09/09 09:58:16;;;;;;;3.58;1.40;;;24.70;38.90;;;;;;5029472;28;20025;-73
2021/09/09 10:00:43;;;;;;;7.93;1.67;;;24.80;37.20;;;;;;5029146;28;20469;-67
2021/09/09 10:03:10;;;;;;;3.17;1.52;;;24.90;37.90;;;;;;5027315;28;20083;-68
2021/09/09 10:05:38;;;;;;;10.43;2.03;;;25.00;37.40;;;;;;5029811;28;20025;-70
2021/09/09 10:08:09;;;;;;;2.45;1.20;;;25.10;37.20;;;;;;5023455;28;20050;-67
2021/09/09 10:10:36;;;;;;;3.90;1.30;;;25.20;37.30;;;;;;5023998;28;20029;-68
2021/09/09 10:13:04;;;;;;;2.53;1.30;;;25.30;37.30;;;;;;5030711;28;20750;-66
2021/09/09 10:15:31;;;;;;;2.92;1.10;;;25.40;36.50;;;;;;5023938;28;20037;-67
2021/09/09 10:17:59;;;;;;;2.70;1.25;;;25.60;36.20;;;;;;5023100;28;20115;-68
2021/09/09 10:20:31;;;;;;;4.97;1.42;;;25.70;36.10;;;;;;5025668;28;20040;-73
2021/09/09 10:23:11;;;;;;;5.55;1.95;;;25.80;36.20;;;;;;5028691;28;20154;-75
2021/09/09 10:25:54;;;;;;;5.97;1.63;;;25.90;36.80;;;;;;5023470;28;20026;-67
2021/09/09 10:28:48;;;;;;;1.10;1.00;;;26.00;35.70;;;;;;5022853;28;20021;-67
2021/09/09 10:31:19;;;;;;;3.28;1.27;;;26.10;34.10;;;;;;5026602;28;20072;-66
2021/09/09 10:33:48;;;;;;;5.25;1.10;;;26.30;35.10;;;;;;5028216;28;20049;-67
2021/09/09 10:36:41;;;;;;;4.32;1.35;;;26.40;34.20;;;;;;5029649;28;20492;-70
2021/09/09 10:39:10;;;;;;;4.60;1.40;;;26.50;33.90;;;;;;5029844;28;20033;-74
2021/09/09 10:41:37;;;;;;;2.22;0.63;;;26.70;33.90;;;;;;5031433;28;20029;-70
2021/09/09 10:44:06;;;;;;;1.17;0.50;;;27.00;32.30;;;;;;5029168;28;20025;-66
2021/09/09 10:46:39;;;;;;;2.38;0.80;;;27.40;31.60;;;;;;5021989;28;20014;-67
2021/09/09 10:49:12;;;;;;;3.03;0.63;;;27.70;31.70;;;;;;5026855;28;20472;-67
2021/09/09 10:52:12;;;;;;;1.75;0.50;;;27.90;32.10;;;;;;5029168;28;20571;-66
2021/09/09 10:55:02;;;;;;;3.53;0.95;;;28.10;32.00;;;;;;5031406;28;20065;-68
2021/09/09 10:57:30;;;;;;;4.65;0.85;;;28.30;31.00;;;;;;5028977;28;20045;-75
2021/09/09 10:59:56;;;;;;;1.40;0.45;;;28.40;30.90;;;;;;5029200;28;20056;-66
2021/09/09 11:02:23;;;;;;;1.67;0.60;;;28.50;30.50;;;;;;5028216;28;20029;-66
2021/09/09 11:04:49;;;;;;;2.58;0.63;;;28.70;28.30;;;;;;5025257;28;20477;-66
2021/09/09 11:07:28;;;;;;;2.08;0.60;;;28.80;27.90;;;;;;5025819;28;20044;-69
2021/09/09 11:09:59;;;;;;;4.30;1.83;;;28.90;28.00;;;;;;5022255;28;20034;-76
2021/09/09 11:12:26;;;;;;;2.47;0.50;;;29.00;28.90;;;;;;5029141;28;20051;-75
2021/09/09 11:15:00;;;;;;;1.98;0.47;;;29.10;29.40;;;;;;5025861;28;20577;-75
2021/09/09 11:17:26;;;;;;;1.00;0.50;;;29.20;28.60;;;;;;5023686;28;20047;-70
2021/09/09 11:20:00;;;;;;;0.85;0.50;;;29.30;29.00;;;;;;5024445;28;20033;-77
2021/09/09 11:22:27;;;;;;;0.90;0.32;;;29.30;29.00;;;;;;5027763;28;20346;-70
2021/09/09 11:24:54;;;;;;;2.95;0.60;;;29.40;29.20;;;;;;5029956;28;20021;-68
2021/09/09 11:27:20;;;;;;;2.05;0.50;;;29.50;28.80;;;;;;5025666;28;20470;-66
2021/09/09 11:29:58;;;;;;;2.47;0.50;;;29.50;28.60;;;;;;5026140;28;20350;-67
2021/09/09 11:32:25;;;;;;;1.30;0.50;;;29.60;28.40;;;;;;5030706;28;20396;-67
2021/09/09 11:34:52;;;;;;;1.65;0.68;;;29.60;28.10;;;;;;5033074;28;20033;-71
2021/09/09 11:37:18;;;;;;;3.72;0.45;;;29.70;27.00;;;;;;5027051;28;20043;-67
2021/09/09 11:39:45;;;;;;;0.43;0.43;;;29.80;26.60;;;;;;5029138;28;20373;-67
2021/09/09 11:42:12;;;;;;;2.50;0.40;;;29.90;27.00;;;;;;5028193;28;20034;-67
2021/09/09 11:44:43;;;;;;;0.95;0.50;;;30.00;26.20;;;;;;5032708;28;20063;-74
2021/09/09 11:47:15;;;;;;;0.90;0.80;;;30.10;25.70;;;;;;5031134;28;20013;-73
2021/09/09 11:49:42;;;;;;;0.50;0.50;;;30.20;26.00;;;;;;5029305;28;20029;-72
2021/09/09 11:52:09;;;;;;;0.70;0.70;;;30.20;26.60;;;;;;5031176;28;20022;-67
2021/09/09 11:54:38;;;;;;;3.63;0.68;;;30.20;27.20;;;;;;5033530;28;20037;-67
2021/09/09 11:57:08;;;;;;;2.40;0.60;;;30.10;27.80;;;;;;5027148;28;20041;-70
2021/09/09 11:59:37;;;;;;;1.45;0.88;;;30.10;28.20;;;;;;5030761;28;20039;-75
2021/09/09 12:02:08;;;;;;;0.95;0.63;;;30.20;27.40;;;;;;5031608;28;20388;-69
2021/09/09 12:04:41;;;;;;;1.92;1.17;;;30.10;25.80;;;;;;5022981;28;20030;-70
2021/09/09 12:07:09;;;;;;;1.20;1.10;;;30.10;26.70;;;;;;5030572;28;20021;-69
2021/09/09 12:09:39;;;;;;;2.75;0.95;;;30.20;27.00;;;;;;5024579;28;20385;-68
2021/09/09 12:12:08;;;;;;;2.35;0.73;;;30.10;27.80;;;;;;5025890;28;20044;-69
2021/09/09 12:14:39;;;;;;;1.95;0.95;;;30.10;28.20;;;;;;5029912;28;20026;-67
2021/09/09 12:17:16;;;;;;;1.48;1.38;;;30.10;28.80;;;;;;5026907;28;20552;-69
2021/09/09 12:20:02;;;;;;;4.97;1.50;;;30.00;28.00;;;;;;5025914;28;20116;-68
2021/09/09 12:22:46;;;;;;;2.42;1.63;;;30.10;27.00;;;;;;5028973;28;20029;-67
2021/09/09 12:25:28;;;;;;;6.43;2.03;;;30.10;27.00;;;;;;5027326;28;20071;-68
2021/09/09 12:28:15;;;;;;;3.00;0.80;;;30.20;26.60;;;;;;5027340;28;20048;-67
2021/09/09 12:30:45;;;;;;;0.80;0.57;;;30.20;27.70;;;;;;5031106;28;20026;-72
2021/09/09 12:33:39;;;;;;;2.85;0.88;;;30.30;27.30;;;;;;5028330;28;20045;-73
2021/09/09 12:36:10;;;;;;;0.40;0.40;;;30.40;26.50;;;;;;5029027;28;20153;-73
2021/09/09 12:38:40;;;;;;;0.88;0.50;;;30.40;25.80;;;;;;5030514;28;20018;-70
2021/09/09 12:41:16;;;;;;;2.05;0.45;;;30.40;26.00;;;;;;5031917;28;20072;-67
2021/09/09 12:44:03;;;;;;;4.05;0.52;;;30.30;25.80;;;;;;5030240;28;20021;-76
2021/09/09 12:46:41;;;;;;;0.93;0.50;;;30.10;26.10;;;;;;5030558;28;20031;-67
2021/09/09 12:49:14;;;;;;;2.65;0.75;;;30.00;26.30;;;;;;5024922;28;20107;-67
2021/09/09 12:51:46;;;;;;;0.65;0.65;;;30.00;26.30;;;;;;5029992;28;20386;-68
2021/09/09 12:54:15;;;;;;;1.27;0.50;;;30.00;26.40;;;;;;5032711;28;20112;-74
2021/09/09 12:56:49;;;;;;;0.57;0.40;;;30.10;26.10;;;;;;5029929;28;20125;-75
2021/09/09 12:59:16;;;;;;;;;;;30.10;26.30;;;;;;5032425;28;20537;-74
2021/09/09 13:01:44;;;;;;;0.50;0.50;;;30.20;25.80;;;;;;5030174;28;19958;-75
2021/09/09 13:04:10;;;;;;;2.08;0.57;;;30.20;25.90;;;;;;5026867;28;20026;-67